Pagina principale
METAR-TAF:

METAR-TAF

Aeroporti :

Aqaba, Giordania

latitudine: 29-38N, longitudine: 035-01E, altezza: 53 m

Osservazione

Il bollettino è stato emesso 54 minuti fa, alle 06:00 UTC
Vento 14 kt da nord
Temperature 32°C
Umidità 32%
Pressione 1009 hPa
Visibilità 10 km o più
nessuna nube inferiore a 1500 m e nessun cumulonembo

METAR: OJAQ 270600Z 35014KT CAVOK 32/13 Q1009 NOSIG

Ora: 09:54 (06:54 UTC)

Previsione

Il bollettino è stato emesso 2 ore e 4 minuti fa, alle 04:50 UTC
Previsione valida dal 27 alle 06 UTC al 28 alle 12 UTC
Vento 14 kt da nord
Visibilità 10 km o più
nessuna nube inferiore a 1500 m e nessun cumulonembo

TAF: OJAQ 270450Z 2706/2812 36014KT CAVOK

Osservazioni e previsioni meteorologiche di più di 4000 aeroporti (messaggi METAR e TAF).

Le stazioni disponibili sono rappresentate dai dischi gialli e rossi sulla carta.

Puntare il mouse per vedere il nome della stazione.

Clicca sopra per visualizzare le osservazioni e previsioni meteorologiche.

Per cambiare la mappa : fare clic sui pulsanti verdi con una croce nera per ingrandire, il pulsante verde con un trattino per diminuire, o sulla freccia verde per le mappe adiacenti.


METAR-TAF: